Time;durP1;ratioP1;P1;durP2;ratioP2;P2;SDS_P1;SDS_P2;PMS_P1;PMS_P2;Temp;Humidity;BMP_temperature;BMP_pressure;BME280_temperature;BME280_humidity;BME280_pressure;Samples;Min_cycle;Max_cycle;Signal;HPM_P1;HPM_P2
2023/08/05 00:00:58;;;;;;;5.03;2.13;;;;;;;22.61;44.53;96005.25;5075548;28;20053;-67
2023/08/05 00:03:27;;;;;;;3.45;1.95;;;;;;;22.55;44.28;96001.31;5075532;28;20092;-66
2023/08/05 00:05:54;;;;;;;2.90;2.38;;;;;;;22.46;45.42;95998.53;5075325;28;20048;-67
2023/08/05 00:08:21;;;;;;;2.70;2.08;;;;;;;22.44;45.63;95997.00;5075480;28;20103;-67
2023/08/05 00:10:48;;;;;;;3.45;2.50;;;;;;;22.36;45.41;95989.72;5075584;28;20044;-67
2023/08/05 00:13:15;;;;;;;2.17;1.95;;;;;;;22.36;45.65;95997.72;5075502;28;20505;-68
2023/08/05 00:15:42;;;;;;;2.55;2.20;;;;;;;22.27;45.56;95995.94;5075416;28;20048;-68
2023/08/05 00:18:10;;;;;;;2.08;1.88;;;;;;;22.21;45.91;95989.34;5075361;28;20049;-67
2023/08/05 00:20:38;;;;;;;2.30;2.10;;;;;;;22.14;45.94;95994.44;5075018;28;20052;-68
2023/08/05 00:23:05;;;;;;;3.17;2.20;;;;;;;22.09;45.50;95988.69;5075278;28;20076;-67
2023/08/05 00:25:32;;;;;;;2.38;2.17;;;;;;;22.01;46.03;95992.09;5074944;28;20136;-68
2023/08/05 00:27:59;;;;;;;3.67;2.53;;;;;;;21.90;45.59;95987.75;5075281;28;20053;-67
2023/08/05 00:30:26;;;;;;;1.90;1.80;;;;;;;21.82;45.65;95982.28;5075042;28;20054;-67
2023/08/05 00:32:53;;;;;;;2.88;2.03;;;;;;;21.70;44.95;95978.91;5075024;28;20128;-66
2023/08/05 00:35:22;;;;;;;5.75;2.05;;;;;;;21.65;46.72;95974.06;5075034;28;20117;-68
2023/08/05 00:37:50;;;;;;;2.50;2.30;;;;;;;21.55;46.52;95976.69;5075009;28;20132;-68
2023/08/05 00:40:17;;;;;;;2.03;1.75;;;;;;;21.40;46.64;95970.97;5074765;28;20482;-66
2023/08/05 00:42:44;;;;;;;4.63;2.40;;;;;;;21.24;46.66;95970.69;5074779;28;20041;-68
2023/08/05 00:45:11;;;;;;;2.33;2.13;;;;;;;21.10;47.04;95967.44;5074835;28;20053;-67
2023/08/05 00:47:39;;;;;;;2.60;1.88;;;;;;;21.02;46.13;95959.34;5074734;28;20139;-67
2023/08/05 00:50:07;;;;;;;2.33;1.70;;;;;;;20.98;46.13;95964.06;5074674;28;20044;-68
2023/08/05 00:52:34;;;;;;;1.85;1.75;;;;;;;20.91;47.32;95962.94;5074606;28;20075;-68
2023/08/05 00:55:03;;;;;;;2.33;2.13;;;;;;;20.87;48.04;95956.19;5074598;28;20060;-67
2023/08/05 00:57:30;;;;;;;2.35;2.15;;;;;;;20.86;48.73;95955.34;5074452;28;20474;-68
2023/08/05 00:59:57;;;;;;;3.63;2.08;;;;;;;20.85;49.04;95959.00;5074389;28;20048;-68
2023/08/05 01:02:24;;;;;;;2.67;2.17;;;;;;;20.85;48.08;95951.03;5074184;28;20063;-68
2023/08/05 01:04:51;;;;;;;3.42;1.90;;;;;;;20.81;47.87;95952.28;5074361;28;20147;-66
2023/08/05 01:07:20;;;;;;;2.22;1.92;;;;;;;20.75;47.40;95953.66;5074125;28;20490;-67
2023/08/05 01:09:47;;;;;;;2.00;1.80;;;;;;;20.70;48.00;95959.38;5074056;28;20379;-68
2023/08/05 01:12:15;;;;;;;2.08;1.88;;;;;;;20.66;48.27;95946.50;5074304;28;20053;-67
2023/08/05 01:14:42;;;;;;;2.03;1.90;;;;;;;20.62;47.89;95943.28;5074101;28;20048;-68
2023/08/05 01:17:10;;;;;;;2.72;2.30;;;;;;;20.56;48.90;95934.03;5073944;28;20478;-67
2023/08/05 01:19:38;;;;;;;2.40;2.20;;;;;;;20.49;48.58;95937.38;5073711;28;20079;-67
2023/08/05 01:22:15;;;;;;;2.33;1.88;;;;;;;20.45;47.94;95935.00;5073947;28;20157;-66
2023/08/05 01:24:49;;;;;;;1.75;1.65;;;;;;;20.44;48.81;95932.47;5074005;28;20044;-66
2023/08/05 01:27:18;;;;;;;2.28;2.08;;;;;;;20.40;48.44;95926.59;5073891;28;20499;-68
2023/08/05 01:29:45;;;;;;;2.38;2.05;;;;;;;20.30;48.51;95923.91;5074006;28;20045;-67
2023/08/05 01:32:14;;;;;;;2.70;2.13;;;;;;;20.25;48.11;95923.47;5073950;28;20086;-67
2023/08/05 01:34:41;;;;;;;2.28;2.08;;;;;;;20.16;49.88;95918.94;5073725;28;20482;-67
2023/08/05 01:37:08;;;;;;;2.63;2.42;;;;;;;20.16;48.62;95921.59;5073733;28;20102;-67
2023/08/05 01:39:35;;;;;;;2.17;1.98;;;;;;;20.14;49.57;95920.91;5073641;28;20094;-66
2023/08/05 01:42:03;;;;;;;2.60;2.20;;;;;;;20.08;49.52;95919.63;5073527;28;20049;-67
2023/08/05 01:44:31;;;;;;;2.45;2.13;;;;;;;20.02;49.53;95920.16;5073592;28;20056;-66
2023/08/05 01:46:58;;;;;;;2.60;2.40;;;;;;;19.95;50.54;95920.66;5073604;28;20048;-67
2023/08/05 01:49:25;;;;;;;2.58;2.38;;;;;;;19.92;49.65;95917.41;5073463;28;20048;-67
2023/08/05 01:51:52;;;;;;;3.30;2.25;;;;;;;19.91;49.38;95918.38;5073547;28;20041;-68
2023/08/05 01:54:19;;;;;;;2.45;2.25;;;;;;;19.90;50.15;95922.03;5073566;28;20128;-68
2023/08/05 01:56:46;;;;;;;2.47;2.28;;;;;;;19.88;50.66;95916.00;5073472;28;20049;-66
2023/08/05 01:59:13;;;;;;;3.92;2.58;;;;;;;19.86;50.78;95904.69;5073339;28;20072;-68
2023/08/05 02:01:42;;;;;;;2.90;2.30;;;;;;;19.79;50.31;95910.53;5073356;28;20110;-66
2023/08/05 02:04:09;;;;;;;2.65;2.45;;;;;;;19.73;51.14;95905.72;5073443;28;20064;-68
2023/08/05 02:06:36;;;;;;;2.95;2.35;;;;;;;19.68;50.82;95916.72;5073177;28;20053;-68
2023/08/05 02:09:03;;;;;;;3.83;3.03;;;;;;;19.63;50.80;95918.09;5073308;28;20049;-68
2023/08/05 02:11:31;;;;;;;2.90;2.70;;;;;;;19.58;51.35;95918.50;5073048;28;20552;-66
2023/08/05 02:13:58;;;;;;;3.00;2.72;;;;;;;19.50;51.54;95916.47;5072576;28;20052;-66
2023/08/05 02:16:25;;;;;;;2.88;2.67;;;;;;;19.41;51.44;95925.19;5073124;28;20135;-68
2023/08/05 02:18:54;;;;;;;5.38;2.97;;;;;;;19.31;51.86;95925.13;5072996;28;20048;-66
2023/08/05 02:21:22;;;;;;;3.25;2.95;;;;;;;19.23;52.32;95927.59;5072972;28;20056;-67
2023/08/05 02:23:49;;;;;;;3.33;3.03;;;;;;;19.18;52.72;95930.63;5072987;28;20504;-67
2023/08/05 02:26:16;;;;;;;3.50;3.20;;;;;;;19.14;53.34;95943.28;5073113;28;20125;-66
2023/08/05 02:28:43;;;;;;;2.95;2.65;;;;;;;19.10;53.40;95941.84;5073163;28;20052;-66
2023/08/05 02:31:10;;;;;;;3.58;3.00;;;;;;;19.12;52.97;95947.03;5073188;28;20049;-67
2023/08/05 02:33:37;;;;;;;3.55;3.25;;;;;;;19.11;53.71;95950.66;5073099;28;20083;-66
2023/08/05 02:36:06;;;;;;;2.72;2.53;;;;;;;19.10;53.87;95947.16;5072935;28;20139;-68
2023/08/05 02:38:33;;;;;;;3.85;3.45;;;;;;;19.02;54.09;95949.56;5073021;28;20048;-66
2023/08/05 02:41:00;;;;;;;5.55;3.50;;;;;;;18.93;54.43;95952.00;5072967;28;20051;-67
2023/08/05 02:43:27;;;;;;;3.70;3.30;;;;;;;18.91;55.04;95945.97;5072833;28;20127;-68
2023/08/05 02:45:55;;;;;;;3.30;2.80;;;;;;;18.94;55.42;95950.19;5072984;28;20482;-66
2023/08/05 02:48:22;;;;;;;3.90;3.60;;;;;;;18.87;55.22;95944.53;5072821;28;20450;-66
2023/08/05 02:50:50;;;;;;;3.80;3.50;;;;;;;18.86;55.71;95940.22;5072751;28;20068;-67
2023/08/05 02:53:19;;;;;;;5.32;4.07;;;;;;;18.82;56.12;95936.97;5072763;28;20490;-66
2023/08/05 02:55:46;;;;;;;6.97;4.00;;;;;;;18.73;56.11;95936.88;5072725;28;20059;-67
2023/08/05 02:58:14;;;;;;;4.30;3.90;;;;;;;18.63;56.55;95934.97;5072632;28;20490;-67
2023/08/05 03:00:42;;;;;;;4.32;3.92;;;;;;;18.61;56.26;95942.22;5072744;28;20143;-66
2023/08/05 03:03:09;;;;;;;4.40;4.00;;;;;;;18.57;57.07;95940.75;5072639;28;20048;-66
2023/08/05 03:05:36;;;;;;;5.00;3.95;;;;;;;18.63;56.96;95945.56;5072684;28;20470;-66
2023/08/05 03:08:04;;;;;;;7.63;3.88;;;;;;;18.67;57.35;95949.63;5072658;28;20059;-66
2023/08/05 03:10:32;;;;;;;4.47;4.07;;;;;;;18.71;57.37;95954.69;5072621;28;20102;-67
2023/08/05 03:12:59;;;;;;;5.03;4.22;;;;;;;18.66;57.61;95957.72;5072559;28;20051;-66
2023/08/05 03:15:28;;;;;;;4.22;3.83;;;;;;;18.60;58.05;95948.44;5072582;28;20544;-66
2023/08/05 03:17:55;;;;;;;4.93;4.30;;;;;;;18.61;58.62;95958.09;5072685;28;20045;-68
2023/08/05 03:20:25;;;;;;;6.18;4.60;;;;;;;18.63;58.47;95950.84;5072247;28;20048;-67
2023/08/05 03:22:53;;;;;;;4.82;4.35;;;;;;;18.65;58.68;95954.22;5072533;28;20044;-66
2023/08/05 03:25:21;;;;;;;5.13;4.70;;;;;;;18.64;58.65;95954.34;5074470;28;20502;-66
2023/08/05 03:27:50;;;;;;;5.07;4.55;;;;;;;18.64;59.00;95955.22;5076110;28;20044;-67
2023/08/05 03:30:18;;;;;;;4.90;4.40;;;;;;;18.73;59.69;95960.72;5076127;28;20040;-67
2023/08/05 03:32:47;;;;;;;4.78;4.38;;;;;;;18.77;59.44;95964.78;5076036;28;20044;-66
2023/08/05 03:35:15;;;;;;;4.63;4.22;;;;;;;18.72;59.84;95959.88;5075917;28;20541;-67
2023/08/05 03:37:42;;;;;;;6.03;4.70;;;;;;;18.61;60.11;95958.09;5076013;28;20097;-67
2023/08/05 03:40:09;;;;;;;5.55;4.90;;;;;;;18.59;60.35;95952.06;5075976;28;20047;-68
2023/08/05 03:42:36;;;;;;;5.55;5.05;;;;;;;18.64;60.77;95947.25;5075950;28;20052;-67
2023/08/05 03:45:06;;;;;;;4.95;4.55;;;;;;;18.71;60.83;95952.03;5075815;28;20048;-66
2023/08/05 03:47:33;;;;;;;5.13;4.70;;;;;;;18.78;61.09;95946.13;5075811;28;20395;-66
2023/08/05 03:50:00;;;;;;;5.35;4.95;;;;;;;18.86;60.89;95942.88;5075903;28;20052;-67
2023/08/05 03:52:29;;;;;;;6.25;5.25;;;;;;;18.92;61.52;95939.72;5075912;28;20044;-67
2023/08/05 03:54:56;;;;;;;6.28;5.47;;;;;;;18.93;61.15;95940.53;5075635;28;20045;-68
2023/08/05 03:57:23;;;;;;;5.25;4.75;;;;;;;18.97;60.75;95944.66;5075657;28;20114;-65
2023/08/05 03:59:50;;;;;;;5.75;5.10;;;;;;;19.12;61.50;95942.59;5075554;28;20453;-66
2023/08/05 04:02:19;;;;;;;5.03;4.63;;;;;;;19.35;61.33;95937.16;5075621;28;20049;-66
2023/08/05 04:04:46;;;;;;;4.97;4.53;;;;;;;19.77;59.95;95944.28;5075492;28;20076;-66
2023/08/05 04:07:13;;;;;;;6.85;4.28;;;;;;;20.24;58.81;95935.06;5075373;28;20135;-67
2023/08/05 04:09:41;;;;;;;5.10;4.60;;;;;;;20.66;58.08;95939.38;5075446;28;20132;-66
2023/08/05 04:12:09;;;;;;;8.55;4.60;;;;;;;21.23;56.37;95942.41;5075411;28;20052;-66
2023/08/05 04:14:37;;;;;;;5.70;4.55;;;;;;;21.76;55.10;95945.63;5075367;28;20052;-66
2023/08/05 04:17:04;;;;;;;8.25;4.20;;;;;;;22.31;54.22;95941.41;5075276;28;20053;-67
2023/08/05 04:19:33;;;;;;;6.78;4.35;;;;;;;22.89;52.64;95939.44;5075004;28;20041;-67
2023/08/05 04:22:01;;;;;;;6.78;4.47;;;;;;;23.42;51.31;95936.13;5075338;28;20128;-67
2023/08/05 04:24:29;;;;;;;5.63;3.90;;;;;;;23.90;50.73;95947.31;5075251;28;20123;-66
2023/08/05 04:26:57;;;;;;;4.32;4.03;;;;;;;24.33;49.85;95946.59;5074978;28;20482;-68
2023/08/05 04:29:24;;;;;;;4.60;4.07;;;;;;;24.71;49.69;95936.38;5075134;28;20133;-66
2023/08/05 04:31:52;;;;;;;6.72;4.03;;;;;;;25.07;48.66;95935.34;5075086;28;20052;-66
2023/08/05 04:34:19;;;;;;;5.05;4.00;;;;;;;25.41;48.77;95927.34;5075074;28;20561;-67
2023/08/05 04:36:50;;;;;;;5.28;3.45;;;;;;;25.78;48.98;95927.84;5074500;28;20580;-66
2023/08/05 04:39:18;;;;;;;6.43;3.75;;;;;;;26.09;49.07;95932.47;5074917;28;20052;-68
2023/08/05 04:41:45;;;;;;;5.80;3.72;;;;;;;26.23;48.93;95923.75;5074890;28;20044;-66
2023/08/05 04:44:13;;;;;;;6.07;4.30;;;;;;;26.34;49.32;95924.44;5074975;28;20049;-67
2023/08/05 04:46:40;;;;;;;5.55;3.83;;;;;;;26.43;48.88;95928.72;5074687;28;20053;-68
2023/08/05 04:49:10;;;;;;;6.47;3.95;;;;;;;26.52;48.92;95926.03;5074835;28;20055;-66
2023/08/05 04:51:37;;;;;;;3.80;3.20;;;;;;;26.67;49.19;95929.63;5074745;28;20044;-68
2023/08/05 04:54:06;;;;;;;5.18;3.67;;;;;;;26.92;49.28;95936.72;5074627;28;20048;-67
2023/08/05 04:56:35;;;;;;;4.55;3.40;;;;;;;27.08;49.07;95938.50;5074873;28;20044;-68
2023/08/05 04:59:02;;;;;;;5.15;3.78;;;;;;;27.12;49.23;95946.00;5074632;28;20041;-66
2023/08/05 05:01:29;;;;;;;4.40;3.53;;;;;;;27.25;49.48;95939.22;5074426;28;20064;-66
2023/08/05 05:03:57;;;;;;;3.65;3.20;;;;;;;27.62;48.86;95944.81;5074369;28;20379;-68
2023/08/05 05:06:24;;;;;;;5.88;3.78;;;;;;;27.56;49.60;95938.31;5074499;28;20127;-67
2023/08/05 05:08:51;;;;;;;4.07;3.67;;;;;;;27.22;51.45;95943.13;5074213;28;20091;-67
2023/08/05 05:11:20;;;;;;;4.68;3.78;;;;;;;27.15;52.34;95946.69;5074300;28;20048;-68
2023/08/05 05:13:50;;;;;;;6.03;3.85;;;;;;;27.32;52.72;95944.69;5074140;28;20131;-67
2023/08/05 05:16:18;;;;;;;4.05;3.47;;;;;;;27.43;52.64;95948.81;5074192;28;20040;-68
2023/08/05 05:18:45;;;;;;;5.47;3.85;;;;;;;27.28;53.37;95941.56;5073948;28;20151;-66
2023/08/05 05:21:13;;;;;;;4.43;3.20;;;;;;;27.35;53.31;95934.47;5073738;28;20055;-67
2023/08/05 05:23:40;;;;;;;6.07;4.38;;;;;;;27.32;54.31;95940.19;5074170;28;20048;-67
2023/08/05 05:26:08;;;;;;;5.65;3.90;;;;;;;27.38;53.74;95927.88;5074032;28;20052;-67
2023/08/05 05:28:36;;;;;;;4.65;3.95;;;;;;;27.63;53.44;95931.22;5073854;28;20060;-68
2023/08/05 05:31:04;;;;;;;5.80;3.80;;;;;;;27.76;52.57;95929.78;5073821;28;20051;-67
2023/08/05 05:33:31;;;;;;;6.18;3.80;;;;;;;27.87;52.34;95928.50;5073883;28;20098;-66
2023/08/05 05:35:58;;;;;;;7.53;4.03;;;;;;;28.32;51.61;95942.00;5073838;28;20086;-66
2023/08/05 05:38:25;;;;;;;5.10;3.47;;;;;;;28.53;50.67;95936.91;5073689;28;20049;-67
2023/08/05 05:40:54;;;;;;;8.23;4.10;;;;;;;28.55;50.89;95933.00;5073766;28;20123;-68
2023/08/05 05:43:21;;;;;;;6.55;3.92;;;;;;;28.57;50.58;95943.59;5073640;28;20098;-67
2023/08/05 05:45:53;;;;;;;5.72;4.25;;;;;;;28.43;50.85;95939.88;5073407;28;20463;-67
2023/08/05 05:48:20;;;;;;;10.25;4.40;;;;;;;28.57;50.41;95938.22;5072595;28;20401;-67
2023/08/05 05:50:47;;;;;;;4.65;3.65;;;;;;;28.93;49.82;95941.94;5073536;28;20052;-67
2023/08/05 05:53:14;;;;;;;4.85;3.53;;;;;;;29.03;49.07;95934.44;5073794;28;20051;-67
2023/08/05 05:55:42;;;;;;;8.52;3.60;;;;;;;29.07;48.92;95938.41;5073633;28;20048;-68
2023/08/05 05:58:10;;;;;;;7.05;4.18;;;;;;;29.15;48.33;95942.84;5073439;28;20076;-67
2023/08/05 06:00:39;;;;;;;7.18;3.97;;;;;;;28.71;50.09;95933.84;5073450;28;20127;-67
2023/08/05 06:03:07;;;;;;;4.00;3.55;;;;;;;28.50;50.42;95930.03;5073475;28;20044;-68
2023/08/05 06:05:34;;;;;;;6.70;3.80;;;;;;;28.75;50.40;95927.88;5073305;28;20135;-67
2023/08/05 06:08:02;;;;;;;5.53;4.07;;;;;;;28.88;50.29;95929.91;5073319;28;20058;-69
2023/08/05 06:10:29;;;;;;;6.45;4.47;;;;;;;29.08;49.66;95925.78;5073273;28;20040;-67
2023/08/05 06:12:57;;;;;;;4.47;3.75;;;;;;;29.39;48.85;95913.88;5073370;28;20056;-67
2023/08/05 06:15:25;;;;;;;5.72;3.70;;;;;;;29.26;48.62;95915.41;5073377;28;20048;-68
2023/08/05 06:17:52;;;;;;;6.05;3.90;;;;;;;29.14;49.02;95911.56;5073244;28;20110;-68
2023/08/05 06:20:20;;;;;;;4.50;3.90;;;;;;;29.03;49.32;95917.44;5072939;28;20059;-67
2023/08/05 06:22:47;;;;;;;8.52;3.80;;;;;;;29.20;49.57;95920.75;5073555;28;20050;-67
2023/08/05 06:25:14;;;;;;;5.63;3.65;;;;;;;29.47;49.84;95916.41;5073270;28;20048;-67
2023/08/05 06:27:41;;;;;;;8.48;3.88;;;;;;;30.01;47.03;95911.47;5073020;28;20044;-67
2023/08/05 06:30:09;;;;;;;3.97;3.20;;;;;;;30.27;47.15;95910.03;5073097;28;20063;-68
2023/08/05 06:32:36;;;;;;;5.10;3.47;;;;;;;30.36;46.66;95908.00;5073060;28;20049;-65
2023/08/05 06:35:04;;;;;;;5.80;4.20;;;;;;;30.08;47.17;95908.00;5073083;28;20541;-67
2023/08/05 06:37:32;;;;;;;6.90;3.35;;;;;;;29.89;47.62;95903.09;5073062;28;20080;-67
2023/08/05 06:40:00;;;;;;;5.35;3.45;;;;;;;30.07;47.22;95907.16;5072950;28;20094;-68
2023/08/05 06:42:27;;;;;;;4.32;3.45;;;;;;;30.22;46.28;95904.38;5072932;28;20048;-66
2023/08/05 06:44:54;;;;;;;5.20;3.80;;;;;;;30.51;45.69;95898.94;5072831;28;20048;-67
2023/08/05 06:47:21;;;;;;;7.68;3.75;;;;;;;30.94;44.89;95894.34;5072742;28;20570;-66
2023/08/05 06:49:49;;;;;;;4.90;3.35;;;;;;;30.89;44.63;95893.09;5072846;28;20044;-68
2023/08/05 06:52:16;;;;;;;5.30;3.60;;;;;;;30.75;44.86;95894.88;5072917;28;20127;-65
2023/08/05 06:54:45;;;;;;;6.40;4.05;;;;;;;30.68;45.81;95902.13;5072639;28;20131;-66
2023/08/05 07:01:25;;;;;;;6.88;4.22;;;;;;;30.57;44.60;95891.88;5067910;28;20127;-67
2023/08/05 07:04:00;;;;;;;6.22;3.60;;;;;;;30.96;45.23;95885.00;5074964;28;20076;-67
2023/08/05 07:06:44;;;;;;;5.82;3.70;;;;;;;30.94;43.47;95884.38;5076568;28;20478;-68
2023/08/05 07:09:45;;;;;;;7.07;3.53;;;;;;;31.35;44.64;95879.06;5073216;28;20053;-68
2023/08/05 07:12:30;;;;;;;5.72;3.63;;;;;;;31.77;42.52;95881.56;5048993;28;20053;-69
2023/08/05 07:15:29;;;;;;;6.13;3.40;;;;;;;31.85;42.07;95880.50;5075785;28;20044;-66
2023/08/05 07:18:41;;;;;;;5.75;3.50;;;;;;;32.02;41.78;95884.47;5076591;28;20048;-66
2023/08/05 07:25:12;;;;;;;4.68;3.33;;;;;;;32.08;40.32;95887.38;5069932;28;20053;-66
2023/08/05 07:31:57;;;;;;;4.88;3.60;;;;;;;32.16;40.29;95881.72;5076039;28;20048;-67
2023/08/05 07:35:07;;;;;;;4.53;3.22;;;;;;;32.40;40.42;95880.22;5074581;28;20114;-68
2023/08/05 07:37:47;;;;;;;;;;;;;;;32.20;40.61;95879.44;5013984;28;20122;-67
2023/08/05 07:40:21;;;;;;;4.70;3.22;;;;;;;32.17;41.49;95883.38;5013847;28;19932;-69
2023/08/05 07:43:24;;;;;;;6.03;3.30;;;;;;;32.53;40.42;95875.81;5013472;28;20042;-66
2023/08/05 07:46:02;;;;;;;7.50;3.22;;;;;;;32.56;40.98;95886.19;5013564;28;20100;-66
2023/08/05 07:51:56;;;;;;;6.05;3.38;;;;;;;32.63;40.36;95878.06;5014038;28;20093;-69
2023/08/05 07:54:38;;;;;;;6.68;3.35;;;;;;;32.48;39.97;95872.91;5014097;28;20061;-68
2023/08/05 07:57:21;;;;;;;5.35;3.25;;;;;;;32.20;41.17;95871.34;5013880;28;20042;-66
2023/08/05 08:00:23;;;;;;;6.15;3.28;;;;;;;32.06;40.64;95868.66;5013897;28;20583;-67
2023/08/05 08:03:18;;;;;;;3.33;3.03;;;;;;;31.89;40.35;95871.78;4985286;28;20145;-66
2023/08/05 08:16:08;;;;;;;5.50;3.17;;;;;;;31.95;39.96;95883.66;5009874;28;20060;-66
2023/08/05 08:19:10;;;;;;;5.15;3.08;;;;;;;31.93;42.44;95855.19;5010347;28;20519;-67
2023/08/05 08:22:26;;;;;;;4.30;3.20;;;;;;;32.08;40.45;95857.63;4976172;28;20046;-67
2023/08/05 08:31:34;;;;;;;4.68;3.47;;;;;;;32.62;39.24;95861.00;4992035;28;20467;-67
2023/08/05 08:34:48;;;;;;;5.38;3.35;;;;;;;32.72;38.49;95857.81;4981109;28;20085;-66
2023/08/05 08:37:55;;;;;;;7.07;3.33;;;;;;;32.64;39.37;95849.94;4991111;28;20050;-68
2023/08/05 08:51:18;;;;;;;3.67;3.22;;;;;;;32.12;37.78;95845.34;4992768;28;20185;-66
2023/08/05 09:00:32;;;;;;;6.22;3.15;;;;;;;32.09;37.04;95833.09;4987788;28;20050;-66
2023/08/05 09:03:45;;;;;;;6.65;3.25;;;;;;;32.02;34.80;95827.69;4981320;28;20408;-67
2023/08/05 09:06:15;;;;;;;4.18;3.00;;;;;;;32.36;35.45;95826.75;4992880;28;20500;-68
2023/08/05 09:09:05;;;;;;;4.97;3.20;;;;;;;32.32;34.49;95820.94;4992960;28;20057;-68
2023/08/05 09:15:10;;;;;;;3.60;2.50;;;;;;;32.21;33.14;95819.75;5053073;28;20166;-68
2023/08/05 09:20:59;;;;;;;6.03;2.67;;;;;;;32.17;32.28;95821.19;5052604;28;20060;-66
2023/08/05 09:24:03;;;;;;;6.80;2.63;;;;;;;32.35;33.98;95816.97;5053538;28;20084;-69
2023/08/05 09:27:09;;;;;;;5.18;2.50;;;;;;;32.02;33.85;95814.16;5053778;28;20049;-66
2023/08/05 09:30:23;;;;;;;9.90;2.70;;;;;;;32.13;35.21;95799.16;5053750;28;20048;-68
2023/08/05 09:33:34;;;;;;;5.13;2.80;;;;;;;32.22;35.19;95802.47;5046070;28;20052;-69
2023/08/05 09:36:59;;;;;;;4.72;2.63;;;;;;;31.93;36.08;95795.69;5050306;28;20498;-66
2023/08/05 09:43:18;;;;;;;4.10;2.67;;;;;;;31.92;36.31;95789.47;4955467;28;20052;-66
2023/08/05 09:57:03;;;;;;;4.88;2.25;;;;;;;31.47;35.59;95774.78;4910003;29;20044;-66
2023/08/05 10:00:28;;;;;;;4.97;2.38;;;;;;;31.63;36.19;95767.25;4914553;29;20052;-69
2023/08/05 10:06:42;;;;;;;4.88;2.33;;;;;;;32.01;35.13;95753.03;4915804;29;20578;-67
2023/08/05 10:13:20;;;;;;;2.97;1.95;;;;;;;32.21;30.50;95748.59;4914993;29;20059;-68
2023/08/05 10:23:29;;;;;;;5.10;2.30;;;;;;;32.90;33.62;95754.22;4915033;29;20464;-67
2023/08/05 10:30:11;;;;;;;5.15;2.50;;;;;;;33.12;34.03;95743.06;4919534;29;20063;-66
2023/08/05 10:36:19;;;;;;;4.00;2.30;;;;;;;32.94;32.51;95740.25;4934348;29;20083;-68
2023/08/05 10:53:32;;;;;;;3.95;2.10;;;;;;;32.87;32.22;95722.16;4934010;29;20050;-67
2023/08/05 11:06:53;;;;;;;3.83;2.53;;;;;;;32.65;35.11;95692.78;4874210;29;20064;-69
2023/08/05 11:09:35;;;;;;;3.60;1.73;;;;;;;32.75;32.93;95691.47;4877067;29;20064;-69
2023/08/05 11:16:15;;;;;;;4.40;2.28;;;;;;;32.45;31.36;95679.38;4876683;29;20393;-69
2023/08/05 11:22:49;;;;;;;5.35;2.25;;;;;;;32.83;31.49;95674.13;4890731;29;20048;-68
2023/08/05 11:25:52;;;;;;;3.97;2.17;;;;;;;32.77;30.57;95692.06;4839497;29;20141;-67
2023/08/05 11:35:32;;;;;;;4.15;2.17;;;;;;;33.17;30.98;95658.44;4895522;29;20177;-68
2023/08/05 11:38:42;;;;;;;3.05;2.15;;;;;;;33.05;31.36;95654.81;4895515;29;20087;-68
2023/08/05 11:45:02;;;;;;;3.92;2.03;;;;;;;33.00;32.02;95631.91;4858343;29;20226;-67
2023/08/05 11:48:22;;;;;;;7.13;2.50;;;;;;;33.34;32.30;95630.75;4857657;29;20511;-69
2023/08/05 11:51:01;;;;;;;3.90;2.97;;;;;;;33.17;31.43;95636.78;4860702;29;20060;-68
2023/08/05 11:54:25;;;;;;;4.82;2.20;;;;;;;32.93;31.04;95647.41;4861400;29;20054;-67
2023/08/05 11:58:08;;;;;;;4.25;2.70;;;;;;;32.80;31.46;95642.09;4861387;29;20506;-67
2023/08/05 12:01:50;;;;;;;2.80;1.90;;;;;;;33.24;31.40;95629.41;4836365;29;20102;-69
2023/08/05 12:04:49;;;;;;;3.78;2.10;;;;;;;33.42;30.03;95649.41;4860919;29;20135;-69
2023/08/05 12:07:28;;;;;;;5.00;1.92;;;;;;;33.33;30.66;95634.50;4887475;29;20056;-69
2023/08/05 12:10:40;;;;;;;4.43;2.05;;;;;;;33.26;30.74;95627.28;4917180;29;20067;-69
2023/08/05 12:13:54;;;;;;;2.95;2.15;;;;;;;33.37;31.13;95611.34;4914337;29;20130;-69
2023/08/05 12:17:04;;;;;;;3.13;2.50;;;;;;;33.45;30.75;95621.88;4972472;28;20062;-68
2023/08/05 12:20:54;;;;;;;4.53;2.28;;;;;;;33.29;31.07;95620.59;4974442;28;20554;-68
2023/08/05 16:13:56;;;;;;;6.15;2.65;;;;;;;29.88;36.20;95389.50;5050526;28;20091;-68
2023/08/05 16:17:03;;;;;;;6.90;2.50;;;;;;;29.64;37.11;95394.47;5054864;28;20102;-67
2023/08/05 16:19:34;;;;;;;5.82;2.15;;;;;;;29.49;36.84;95386.56;5018330;28;20433;-67
2023/08/05 16:22:20;;;;;;;3.67;2.17;;;;;;;29.36;37.52;95387.41;5055138;28;20056;-66
2023/08/05 16:25:03;;;;;;;6.03;2.63;;;;;;;29.22;38.35;95397.31;5054200;28;20131;-66
2023/08/05 16:31:33;;;;;;;5.30;2.28;;;;;;;28.99;39.56;95386.91;4275189;27;24432669;-67
2023/08/05 16:34:04;;;;;;;5.28;2.45;;;;;;;28.84;39.60;95387.84;5108775;28;20051;-69
2023/08/05 16:36:33;;;;;;;5.10;2.38;;;;;;;28.71;39.63;95385.97;5110257;28;20039;-68
2023/08/05 16:39:22;;;;;;;5.88;2.65;;;;;;;28.67;39.64;95391.94;5110331;28;20080;-70
2023/08/05 16:42:25;;;;;;;5.43;2.72;;;;;;;28.61;40.03;95393.56;5110328;28;20109;-69
2023/08/05 16:45:22;;;;;;;5.45;2.50;;;;;;;28.35;40.55;95387.88;5109732;28;20554;-67
2023/08/05 16:47:52;;;;;;;4.32;2.35;;;;;;;28.22;40.52;95387.75;5110585;28;20382;-68
2023/08/05 16:50:23;;;;;;;7.50;2.72;;;;;;;28.19;40.71;95396.22;5110711;28;20378;-66
2023/08/05 16:56:16;;;;;;;5.80;2.10;;;;;;;27.86;40.96;95382.38;5110431;28;20123;-69
2023/08/05 16:58:59;;;;;;;6.13;2.65;;;;;;;27.71;41.07;95371.75;5110423;28;20050;-68
2023/08/05 17:01:40;;;;;;;6.90;2.67;;;;;;;27.67;41.69;95377.69;5110374;28;20539;-68
2023/08/05 17:04:34;;;;;;;6.22;2.85;;;;;;;27.57;42.13;95376.13;5110358;28;20083;-67
2023/08/05 17:07:29;;;;;;;5.47;2.60;;;;;;;27.42;42.66;95373.53;5110320;28;20100;-69
2023/08/05 17:10:15;;;;;;;3.88;2.50;;;;;;;27.25;43.33;95370.28;5110184;28;20044;-68
2023/08/05 17:19:06;;;;;;;9.45;3.10;;;;;;;26.94;44.97;95377.59;5089080;28;20135;-66
2023/08/05 17:21:36;;;;;;;3.72;2.22;;;;;;;26.88;45.60;95378.38;5088608;28;20040;-69
2023/08/05 17:24:04;;;;;;;7.32;2.70;;;;;;;26.79;46.14;95374.13;5089280;28;20048;-68
2023/08/05 17:26:31;;;;;;;7.45;3.17;;;;;;;26.72;46.65;95379.41;5089744;28;20052;-68
2023/08/05 17:28:58;;;;;;;5.10;2.95;;;;;;;26.62;47.48;95385.06;5089565;28;20055;-69
2023/08/05 17:31:25;;;;;;;9.45;3.20;;;;;;;26.53;48.33;95386.19;5089257;28;20516;-66
2023/08/05 17:33:53;;;;;;;11.98;3.00;;;;;;;26.44;48.62;95372.06;5089426;28;20072;-68
2023/08/05 17:36:21;;;;;;;7.13;3.20;;;;;;;26.39;48.72;95363.78;5089690;28;20062;-68
2023/08/05 17:39:08;;;;;;;8.45;2.85;;;;;;;26.23;49.03;95362.91;5089401;28;20090;-67
2023/08/05 17:41:47;;;;;;;9.23;3.00;;;;;;;26.11;49.22;95360.72;5079625;28;20045;-66
2023/08/05 17:44:16;;;;;;;4.30;3.05;;;;;;;26.10;49.74;95361.69;5075034;28;20059;-67
2023/08/05 17:46:44;;;;;;;5.60;3.20;;;;;;;25.98;50.04;95363.19;5058248;28;20132;-68
2023/08/05 17:49:11;;;;;;;5.30;3.30;;;;;;;25.91;50.77;95368.44;5075701;28;20052;-65
2023/08/05 17:51:38;;;;;;;9.75;2.95;;;;;;;25.82;51.37;95365.03;5075827;28;20086;-68
2023/08/05 17:54:06;;;;;;;12.85;2.83;;;;;;;25.74;52.28;95381.19;5075647;28;20057;-65
2023/08/05 17:56:39;;;;;;;4.63;2.92;;;;;;;25.70;52.75;95371.81;5075629;28;20045;-68
2023/08/05 17:59:11;;;;;;;6.90;3.25;;;;;;;25.59;52.87;95379.28;5075219;28;20414;-66
2023/08/05 18:01:39;;;;;;;9.00;3.42;;;;;;;25.48;53.49;95398.44;5075448;28;20064;-66
2023/08/05 18:04:06;;;;;;;8.93;3.72;;;;;;;25.44;53.96;95378.41;5075561;28;20063;-67
2023/08/05 18:06:56;;;;;;;10.88;3.40;;;;;;;25.27;54.41;95377.69;5075533;28;20045;-65
2023/08/05 18:09:30;;;;;;;7.87;3.40;;;;;;;25.18;55.31;95385.78;5075147;28;20048;-67
2023/08/05 18:11:57;;;;;;;7.75;3.35;;;;;;;25.10;55.69;95400.03;5075523;28;20470;-68
2023/08/05 18:14:25;;;;;;;10.27;3.58;;;;;;;25.05;55.96;95386.38;5064250;28;20073;-65
2023/08/05 18:17:23;;;;;;;6.93;2.95;;;;;;;25.01;56.03;95390.41;5054710;28;20091;-66
2023/08/05 18:20:12;;;;;;;5.32;3.10;;;;;;;24.88;56.63;95396.34;5055077;28;20088;-67
2023/08/05 18:22:40;;;;;;;6.70;3.45;;;;;;;24.84;57.39;95395.81;5053927;28;20075;-66
2023/08/05 18:25:17;;;;;;;10.52;3.42;;;;;;;24.77;58.01;95400.22;5054903;28;20132;-68
2023/08/05 18:27:55;;;;;;;6.55;3.20;;;;;;;24.66;58.26;95395.25;5070593;28;20054;-69
2023/08/05 18:31:08;;;;;;;6.57;4.00;;;;;;;24.54;59.11;95409.03;5249441;22;20061;-65
2023/08/05 18:33:37;;;;;;;10.55;3.60;;;;;;;24.54;59.42;95401.00;5034005;28;20045;-67